createdAt,value
2023-07-12T04:41:08.908Z,63.18
2023-07-12T04:43:37.956Z,65.04
2023-07-12T04:46:06.275Z,66.03
2023-07-12T04:48:35.543Z,65.70
2023-07-12T04:51:05.425Z,66.79
2023-07-12T04:53:35.087Z,65.83
2023-07-12T04:56:03.829Z,67.01
2023-07-12T04:58:34.599Z,64.69
2023-07-12T05:01:03.724Z,67.27
2023-07-12T05:03:32.576Z,68.09
2023-07-12T05:06:13.638Z,67.24
2023-07-12T05:08:49.724Z,68.79
2023-07-12T05:11:18.771Z,66.66
2023-07-12T05:13:48.553Z,68.41
2023-07-12T05:16:17.067Z,66.99
2023-07-12T05:18:45.531Z,71.55
2023-07-12T05:21:14.110Z,68.18
2023-07-12T05:23:43.349Z,68.35
2023-07-12T05:26:12.052Z,69.29
2023-07-12T05:28:40.582Z,66.84
2023-07-12T05:31:11.729Z,67.38
2023-07-12T05:33:43.529Z,66.61
2023-07-12T05:36:12.482Z,67.31
2023-07-12T05:38:40.847Z,69.20
2023-07-12T05:41:09.604Z,66.83
2023-07-12T05:43:41.121Z,68.63
2023-07-12T05:46:10.865Z,66.60
2023-07-12T05:48:39.573Z,69.76
2023-07-12T05:51:09.886Z,67.13
2023-07-12T05:53:38.828Z,65.12
2023-07-12T05:56:08.129Z,67.81
2023-07-12T05:58:37.061Z,66.00
2023-07-12T06:01:06.829Z,66.25
2023-07-12T06:03:38.699Z,63.83
2023-07-12T06:06:15.848Z,64.78
2023-07-12T06:08:47.166Z,64.60
2023-07-12T06:11:20.020Z,64.29
2023-07-12T06:13:49.864Z,64.77
2023-07-12T06:16:19.703Z,64.72
2023-07-12T06:18:55.475Z,64.07
2023-07-12T06:21:26.956Z,63.81
2023-07-12T06:23:58.582Z,62.32
2023-07-12T06:26:26.953Z,60.17
2023-07-12T06:28:55.605Z,60.60
2023-07-12T06:31:24.499Z,60.49
2023-07-12T06:33:54.245Z,59.09
2023-07-12T06:36:22.591Z,61.20
2023-07-12T06:38:51.023Z,62.19
2023-07-12T06:41:19.350Z,62.21
2023-07-12T06:43:47.772Z,61.57
2023-07-12T06:46:17.419Z,62.69
2023-07-12T06:48:46.423Z,63.49
2023-07-12T06:51:16.286Z,65.21
2023-07-12T06:53:44.868Z,62.92
2023-07-12T06:56:13.140Z,61.92
2023-07-12T06:58:41.602Z,66.49
2023-07-12T07:01:11.348Z,57.22
2023-07-12T07:03:40.148Z,53.34
2023-07-12T07:06:08.465Z,51.54
2023-07-12T07:08:38.305Z,52.52
2023-07-12T07:11:07.004Z,54.94
2023-07-12T07:13:35.694Z,56.46
2023-07-12T07:16:05.033Z,53.78
2023-07-12T07:18:36.253Z,57.27
2023-07-12T07:21:05.756Z,52.92
2023-07-12T07:23:35.037Z,57.65
2023-07-12T07:26:07.059Z,59.45
2023-07-12T07:28:37.373Z,59.56
2023-07-12T07:31:05.878Z,61.47
2023-07-12T07:33:34.336Z,60.82
2023-07-12T07:36:02.632Z,63.23
2023-07-12T07:38:31.367Z,61.85
2023-07-12T07:40:59.880Z,63.93
2023-07-12T07:43:29.566Z,58.70
2023-07-12T07:45:57.973Z,59.83
2023-07-12T07:48:26.436Z,60.71
2023-07-12T07:50:55.793Z,65.08
2023-07-12T07:53:24.436Z,60.65
2023-07-12T07:55:52.845Z,61.95
2023-07-12T07:58:22.642Z,61.60
2023-07-12T08:00:53.478Z,62.66
2023-07-12T08:03:22.278Z,61.81
2023-07-12T08:05:51.052Z,59.98
2023-07-12T08:08:21.564Z,59.83
2023-07-12T08:10:49.880Z,59.65
2023-07-12T08:13:18.597Z,60.06
2023-07-12T08:15:47.066Z,61.48
2023-07-12T08:18:17.353Z,64.21
2023-07-12T08:20:45.784Z,64.72
2023-07-12T08:23:14.700Z,62.23
2023-07-12T08:25:43.113Z,62.61
2023-07-12T08:28:11.520Z,63.32
2023-07-12T08:30:39.924Z,68.76
2023-07-12T08:33:08.276Z,69.32
2023-07-12T08:35:48.273Z,66.10
2023-07-12T08:38:18.473Z,64.47
2023-07-12T08:40:49.798Z,64.78
2023-07-12T08:43:22.368Z,66.77
2023-07-12T08:45:53.495Z,68.27
2023-07-12T08:48:24.490Z,65.66
2023-07-12T08:50:54.480Z,66.49
2023-07-12T08:53:27.406Z,65.81
2023-07-12T08:55:56.956Z,66.61
2023-07-12T08:58:27.814Z,68.77
2023-07-12T09:01:04.172Z,67.02
2023-07-12T09:03:32.654Z,67.33
2023-07-12T09:06:02.815Z,67.99
2023-07-12T09:08:35.460Z,68.40
2023-07-12T09:11:04.125Z,68.72
2023-07-12T09:13:37.089Z,69.32
2023-07-12T09:16:06.818Z,69.80
2023-07-12T09:18:38.189Z,69.09
2023-07-12T09:21:16.876Z,75.32
2023-07-12T09:23:47.606Z,68.82
2023-07-12T09:26:24.814Z,75.53
2023-07-12T09:28:54.744Z,78.74
2023-07-12T09:31:25.105Z,79.94
2023-07-12T09:33:55.913Z,79.25
2023-07-12T09:36:25.767Z,77.38
2023-07-12T09:38:54.178Z,79.66
2023-07-12T09:41:25.725Z,79.82
2023-07-12T09:43:57.249Z,80.37
2023-07-12T09:46:33.537Z,79.69
2023-07-12T09:49:06.251Z,79.14
2023-07-12T09:51:44.039Z,76.38
2023-07-12T09:54:23.324Z,75.20
2023-07-12T09:56:56.169Z,72.39
2023-07-12T09:59:32.255Z,72.21
2023-07-12T10:02:10.978Z,72.56
2023-07-12T10:04:42.429Z,73.09
2023-07-12T10:07:17.991Z,74.74
2023-07-12T10:09:49.280Z,76.13
2023-07-12T10:12:25.188Z,78.25
2023-07-12T10:14:55.270Z,77.54
2023-07-12T10:17:31.050Z,76.39
2023-07-12T10:19:59.554Z,73.08
2023-07-12T10:22:34.253Z,72.41
2023-07-12T10:25:05.914Z,76.03
2023-07-12T10:27:37.544Z,73.99
2023-07-12T10:30:11.577Z,70.05
2023-07-12T10:32:44.237Z,71.82
2023-07-12T10:35:19.423Z,69.12
2023-07-12T10:37:53.361Z,69.46
2023-07-12T10:40:26.166Z,69.66
2023-07-12T10:42:57.158Z,70.78
2023-07-12T10:45:28.175Z,69.42
2023-07-12T10:47:57.245Z,69.84
2023-07-12T10:50:29.930Z,68.74
2023-07-12T10:53:03.865Z,66.99
2023-07-12T10:55:44.175Z,67.81
2023-07-12T10:58:25.886Z,70.30
2023-07-12T11:00:56.398Z,70.46
2023-07-12T11:03:35.488Z,73.81
2023-07-12T11:06:09.125Z,74.65
2023-07-12T11:08:41.369Z,73.87
2023-07-12T11:11:43.537Z,73.98
2023-07-12T11:14:27.855Z,75.75
2023-07-12T11:17:16.103Z,77.36
2023-07-12T11:19:53.192Z,78.10
2023-07-12T11:22:22.883Z,78.57
2023-07-12T11:25:01.888Z,77.85
2023-07-12T11:27:55.656Z,78.74
2023-07-12T11:30:28.176Z,82.33
2023-07-12T11:33:00.546Z,85.60
2023-07-12T11:35:44.552Z,83.38
2023-07-12T11:38:17.363Z,84.33
2023-07-12T11:40:49.008Z,80.06
2023-07-12T11:43:35.761Z,83.00
2023-07-12T11:46:07.072Z,78.76
2023-07-12T11:48:36.422Z,84.94
2023-07-12T11:51:10.453Z,82.06
2023-07-12T11:53:40.443Z,83.59
2023-07-12T11:56:16.788Z,81.64
2023-07-12T11:58:46.480Z,82.20
2023-07-12T12:01:18.976Z,82.06
2023-07-12T12:03:50.684Z,82.46
2023-07-12T12:06:20.158Z,81.27
2023-07-12T12:08:52.125Z,79.35
2023-07-12T12:11:22.538Z,80.10
2023-07-12T12:13:54.009Z,76.28
2023-07-12T12:16:25.132Z,76.88
2023-07-12T12:18:59.247Z,76.58
2023-07-12T12:21:29.166Z,76.97
2023-07-12T12:23:59.183Z,77.06
2023-07-12T12:26:31.642Z,75.69
2023-07-12T12:29:02.681Z,73.58
2023-07-12T12:31:32.893Z,74.59
2023-07-12T12:34:06.209Z,74.70
2023-07-12T12:36:35.833Z,72.49
2023-07-12T12:39:07.460Z,68.88
2023-07-12T12:41:40.186Z,70.26
2023-07-12T12:44:12.016Z,66.97
2023-07-12T12:54:29.168Z,68.44
2023-07-12T12:58:08.896Z,68.97
2023-07-12T13:02:28.142Z,68.96
2023-07-12T13:08:44.621Z,67.72
2023-07-12T13:17:00.995Z,62.54
2023-07-12T13:19:02.533Z,63.90
2023-07-12T13:21:18.962Z,64.40
2023-07-12T13:23:48.195Z,61.39
2023-07-12T13:26:18.527Z,62.31
2023-07-12T13:28:48.941Z,61.01
2023-07-12T13:31:21.348Z,60.58
2023-07-12T13:36:28.908Z,60.47
2023-07-12T13:46:36.684Z,60.62
2023-07-12T13:49:05.300Z,62.21
2023-07-12T13:51:33.791Z,61.22
2023-07-12T13:54:02.293Z,58.64
2023-07-12T13:56:46.443Z,58.64
2023-07-12T13:59:19.083Z,59.75
2023-07-12T14:03:05.403Z,60.50
2023-07-12T14:04:50.540Z,60.77
2023-07-12T14:10:13.378Z,59.76
2023-07-12T14:12:42.593Z,61.39
2023-07-12T14:15:17.534Z,62.21
2023-07-12T14:17:46.167Z,59.77
2023-07-12T14:20:14.602Z,62.14
2023-07-12T14:22:43.496Z,62.42
2023-07-12T14:25:17.865Z,62.35
2023-07-12T14:27:46.315Z,60.46
2023-07-12T14:32:50.397Z,62.35
2023-07-12T14:35:22.185Z,59.60
2023-07-12T14:37:51.384Z,62.92
2023-07-12T14:40:21.153Z,59.57
2023-07-12T14:42:49.900Z,59.80
2023-07-12T14:45:21.969Z,60.39
2023-07-12T14:47:50.811Z,59.42
2023-07-12T14:50:21.822Z,60.02
2023-07-12T14:52:50.409Z,60.23
2023-07-12T14:55:20.087Z,60.22
2023-07-12T15:00:22.394Z,60.95
2023-07-12T15:02:54.654Z,60.27
2023-07-12T15:05:23.446Z,61.29
2023-07-12T15:07:52.601Z,61.99
2023-07-12T15:10:22.124Z,59.13
2023-07-12T15:12:52.395Z,59.26
2023-07-12T15:15:24.273Z,58.44
2023-07-12T15:18:00.218Z,58.67
2023-07-12T15:20:28.969Z,58.52
2023-07-12T15:22:59.031Z,59.61
2023-07-12T15:25:29.292Z,59.38
2023-07-12T15:27:58.709Z,58.92
2023-07-12T15:30:30.191Z,61.43
2023-07-12T15:33:00.017Z,60.45
2023-07-12T15:35:31.247Z,60.41
2023-07-12T15:38:01.608Z,60.30
2023-07-12T15:40:52.505Z,60.40
2023-07-12T15:43:22.327Z,61.65
2023-07-12T15:45:53.045Z,62.63
2023-07-12T15:48:24.333Z,60.71
2023-07-12T15:50:55.679Z,60.74
2023-07-12T15:53:25.342Z,62.08
2023-07-12T15:55:54.009Z,60.71
2023-07-12T15:58:30.859Z,61.14
2023-07-12T16:01:02.122Z,62.29
2023-07-12T16:03:33.013Z,61.33
2023-07-12T16:06:02.496Z,63.68
2023-07-12T16:08:34.673Z,63.13
2023-07-12T16:11:06.528Z,62.93
2023-07-12T16:13:36.094Z,64.69
2023-07-12T16:16:07.942Z,64.02
2023-07-12T16:18:36.697Z,63.71
2023-07-12T16:21:06.933Z,63.10
2023-07-12T16:23:36.950Z,64.60
2023-07-12T16:26:07.674Z,63.67
2023-07-12T16:28:37.895Z,62.83
2023-07-12T16:31:29.666Z,63.15
2023-07-12T16:33:59.894Z,63.15
2023-07-12T16:36:28.850Z,63.98
2023-07-12T16:38:57.609Z,61.97
2023-07-12T16:41:28.330Z,62.25
2023-07-12T16:43:57.828Z,62.72
2023-07-12T16:46:30.804Z,61.80
2023-07-12T16:48:59.640Z,61.94
2023-07-12T16:51:30.285Z,62.31
2023-07-12T16:53:59.023Z,61.60
2023-07-12T16:56:29.051Z,60.84
2023-07-12T16:58:57.711Z,60.84
2023-07-12T17:01:29.841Z,60.86
2023-07-12T17:03:59.856Z,61.67
2023-07-12T17:06:29.790Z,62.02
2023-07-12T17:08:58.217Z,63.81
2023-07-12T17:11:29.205Z,64.58
2023-07-12T17:13:57.926Z,64.32
2023-07-12T17:16:29.583Z,64.94
2023-07-12T17:18:59.746Z,64.14
2023-07-12T17:21:28.268Z,64.39
2023-07-12T17:23:56.841Z,64.31
2023-07-12T17:26:25.244Z,63.60
2023-07-12T17:28:54.310Z,65.27
2023-07-12T17:31:25.742Z,66.66
2023-07-12T17:33:55.512Z,68.12
2023-07-12T17:36:25.226Z,68.66
2023-07-12T17:38:57.174Z,67.99
2023-07-12T17:41:27.868Z,68.66
2023-07-12T17:43:56.651Z,71.60
2023-07-12T17:46:25.746Z,70.55
2023-07-12T17:48:55.592Z,71.58
2023-07-12T17:51:26.106Z,71.56
2023-07-12T17:53:56.674Z,73.54
2023-07-12T17:56:25.480Z,71.92
2023-07-12T17:58:54.456Z,73.65
2023-07-12T18:01:24.294Z,73.35
2023-07-12T18:03:53.683Z,75.07
2023-07-12T18:06:26.784Z,75.45
2023-07-12T18:08:55.860Z,73.32
2023-07-12T18:11:28.344Z,69.49
2023-07-12T18:13:57.508Z,67.32
2023-07-12T18:16:26.448Z,68.05
2023-07-12T18:18:55.012Z,65.88
2023-07-12T18:21:27.282Z,67.72
2023-07-12T18:23:56.320Z,65.69
2023-07-12T18:26:25.948Z,66.24
2023-07-12T18:28:55.350Z,67.72
2023-07-12T18:31:26.697Z,65.11
2023-07-12T18:33:55.574Z,65.42
2023-07-12T18:36:26.517Z,66.88
2023-07-12T18:38:57.454Z,64.80
2023-07-12T18:41:27.480Z,64.78
2023-07-12T18:43:56.332Z,69.65
2023-07-12T18:46:25.601Z,67.44
2023-07-12T18:48:54.414Z,67.18
2023-07-12T18:51:26.650Z,69.08
2023-07-12T18:53:55.351Z,68.72
2023-07-12T18:56:26.415Z,70.81
2023-07-12T18:58:55.384Z,67.06
2023-07-12T19:01:25.545Z,67.58
2023-07-12T19:03:54.120Z,68.54
2023-07-12T19:06:25.176Z,69.02
2023-07-12T19:08:55.910Z,69.96
2023-07-12T19:11:27.424Z,69.00
2023-07-12T19:13:55.824Z,68.12
2023-07-12T19:16:24.927Z,68.39
2023-07-12T19:18:53.705Z,69.48
2023-07-12T19:21:27.367Z,70.19
2023-07-12T19:23:58.706Z,69.17
2023-07-12T19:26:28.497Z,69.28
2023-07-12T19:28:57.067Z,72.81
2023-07-12T19:31:27.638Z,72.96
2023-07-12T19:33:57.279Z,69.48
2023-07-12T19:36:26.762Z,68.82
2023-07-12T19:38:57.204Z,69.63
2023-07-12T19:41:28.946Z,73.48
2023-07-12T19:43:57.631Z,72.18
2023-07-12T19:46:26.120Z,72.44
2023-07-12T19:48:54.553Z,71.38
2023-07-12T19:51:26.971Z,74.21
2023-07-12T19:53:58.905Z,71.71
2023-07-12T19:56:27.882Z,71.52
2023-07-12T19:58:58.432Z,72.07
2023-07-12T20:01:28.635Z,72.78
2023-07-12T20:03:58.901Z,72.90
2023-07-12T20:06:28.103Z,74.68
2023-07-12T20:08:58.763Z,73.85
2023-07-12T20:11:27.990Z,74.36
2023-07-12T20:13:57.698Z,74.03
2023-07-12T20:16:28.778Z,76.12
2023-07-12T20:18:58.570Z,75.70
2023-07-12T20:21:27.090Z,73.17
2023-07-12T20:23:55.596Z,74.85
2023-07-12T20:26:25.332Z,77.39
2023-07-12T20:28:53.799Z,74.24
2023-07-12T20:31:22.514Z,76.34
2023-07-12T20:33:51.016Z,73.69
2023-07-12T20:36:19.441Z,78.73
2023-07-12T20:38:47.906Z,74.17
2023-07-12T20:41:17.111Z,74.18
2023-07-12T20:43:46.878Z,75.05
2023-07-12T20:46:15.968Z,77.85
2023-07-12T20:48:45.029Z,75.65
2023-07-12T20:51:15.025Z,75.47
2023-07-12T20:53:45.552Z,75.76
2023-07-12T20:56:15.970Z,75.68
2023-07-12T20:58:44.709Z,75.66
2023-07-12T21:01:16.155Z,75.74
